Vowinckel, Pennsylvania
Current Conditions -  °F | °C
As of 3:53 PM on Friday 19 Dec 2014 (Local Time) from KDUJ Reporting Station
Broken Clouds Broken Clouds  
Wind Chill: 17°   Ceiling: 2400
Heat Index: 27°   Visibility: 10mi
Dew Point: 19°   Wind: 10mph
Humidity: 72%   Direction: 270°W
Pressure: 30.13"   Gusts: NA
Location:  41.41°N, 79.23°W
Report Text: KDUJ 192053Z AUTO 27009KT 10SM BKN024 M03/M07 A3013 RMK AO2 SLP225 T10281072 53011
Loading
Personal Weather Stations






























Interactive Weather Map New forecast layout! Learn more

10-Day Weather Forecast

Advertisements
Track Severe Weather on mobile